Time;durP1;ratioP1;P1;durP2;ratioP2;P2;SDS_P1;SDS_P2;PMS_P1;PMS_P2;Temp;Humidity;BMP_temperature;BMP_pressure;BME280_temperature;BME280_humidity;BME280_pressure;Samples;Min_cycle;Max_cycle;Signal;HPM_P1;HPM_P2
2021/06/01 00:01:12;;;;;;;3.67;2.72;;;14.30;54.60;;;;;;4992553;28;20037;-79
2021/06/01 00:03:38;;;;;;;5.35;2.38;;;14.30;54.50;;;;;;4982614;28;20030;-80
2021/06/01 00:06:04;;;;;;;5.63;2.30;;;14.10;54.70;;;;;;4979899;28;20445;-79
2021/06/01 00:08:29;;;;;;;4.95;2.30;;;13.90;55.40;;;;;;4992692;28;20030;-80
2021/06/01 00:10:55;;;;;;;5.10;2.17;;;13.80;55.80;;;;;;4990867;28;20566;-80
2021/06/01 00:13:20;;;;;;;4.38;2.28;;;13.80;56.20;;;;;;5001170;28;20144;-80
2021/06/01 00:15:46;;;;;;;7.88;3.60;;;13.70;56.40;;;;;;4981246;28;20314;-80
2021/06/01 00:18:11;;;;;;;4.18;2.35;;;13.60;56.90;;;;;;4967169;28;20038;-80
2021/06/01 00:20:37;;;;;;;6.50;2.13;;;13.60;56.90;;;;;;4967921;28;20148;-79
2021/06/01 00:23:02;;;;;;;8.10;2.75;;;13.70;56.20;;;;;;4978248;28;20108;-80
2021/06/01 00:25:28;;;;;;;4.15;2.50;;;13.70;56.40;;;;;;4985208;28;20621;-80
2021/06/01 00:27:53;;;;;;;4.20;2.88;;;13.70;55.90;;;;;;4995686;28;20392;-79
2021/06/01 00:30:19;;;;;;;3.53;2.20;;;13.80;55.80;;;;;;4981633;28;20045;-79
2021/06/01 00:32:45;;;;;;;6.45;2.83;;;13.80;55.50;;;;;;4984393;28;20037;-80
2021/06/01 00:35:11;;;;;;;8.65;2.42;;;13.80;55.10;;;;;;4974975;28;20231;-80
2021/06/01 00:37:36;;;;;;;5.30;2.95;;;13.70;55.00;;;;;;4991964;28;20057;-79
2021/06/01 00:40:02;;;;;;;4.32;2.72;;;13.70;55.10;;;;;;4966628;28;20022;-79
2021/06/01 00:42:27;;;;;;;6.25;2.70;;;13.60;55.20;;;;;;4965542;28;20092;-79
2021/06/01 00:44:53;;;;;;;5.78;3.03;;;13.60;55.10;;;;;;4963798;28;20059;-80
2021/06/01 00:47:18;;;;;;;5.20;2.78;;;13.60;55.40;;;;;;4991511;28;20394;-80
2021/06/01 00:49:44;;;;;;;6.00;2.97;;;13.40;55.40;;;;;;4963336;28;20030;-79
2021/06/01 00:52:11;;;;;;;3.03;2.33;;;13.10;56.40;;;;;;4995596;28;20100;-79
2021/06/01 00:54:36;;;;;;;5.63;2.58;;;12.90;57.50;;;;;;4998040;28;20034;-79
2021/06/01 00:57:02;;;;;;;6.07;2.78;;;12.90;57.50;;;;;;4996943;28;20407;-80
2021/06/01 00:59:28;;;;;;;4.32;2.85;;;12.80;57.90;;;;;;4983142;28;20137;-80
2021/06/01 01:01:53;;;;;;;6.25;3.45;;;12.90;57.30;;;;;;4963311;28;20045;-80
2021/06/01 01:04:19;;;;;;;7.35;2.90;;;12.90;57.40;;;;;;4993828;28;20038;-79
2021/06/01 01:07:14;;;;;;;7.22;3.00;;;12.70;58.10;;;;;;4964796;28;20069;-79
2021/06/01 01:09:40;;;;;;;13.18;3.55;;;12.70;58.00;;;;;;4994356;28;20311;-79
2021/06/01 01:12:06;;;;;;;3.75;2.80;;;12.80;57.20;;;;;;4993845;28;20113;-80
2021/06/01 01:14:33;;;;;;;3.90;2.65;;;12.70;57.70;;;;;;4991504;28;20030;-79
2021/06/01 01:17:05;;;;;;;5.93;3.30;;;12.60;57.80;;;;;;4990747;28;20465;-79
2021/06/01 01:20:05;;;;;;;5.35;2.95;;;12.50;58.60;;;;;;4967743;28;20093;-79
2021/06/01 01:22:32;;;;;;;4.72;3.22;;;12.50;57.90;;;;;;4984221;28;20534;-80
2021/06/01 01:25:02;;;;;;;9.18;3.13;;;12.40;58.30;;;;;;4996318;28;20034;-79
2021/06/01 01:27:35;;;;;;;4.55;3.20;;;12.20;59.50;;;;;;4989893;28;20633;-79
2021/06/01 01:30:03;;;;;;;9.80;3.65;;;12.20;60.60;;;;;;4978022;28;20034;-79
2021/06/01 01:32:45;;;;;;;6.00;3.08;;;12.10;59.70;;;;;;4985321;28;20045;-79
2021/06/01 01:35:11;;;;;;;9.70;3.90;;;12.20;59.30;;;;;;4981670;28;20440;-79
2021/06/01 01:37:37;;;;;;;5.85;3.40;;;12.30;58.60;;;;;;4996801;28;20034;-79
2021/06/01 01:40:05;;;;;;;6.35;3.42;;;12.30;58.40;;;;;;4962730;28;20098;-79
2021/06/01 01:42:40;;;;;;;6.07;3.55;;;12.30;58.20;;;;;;4981179;28;20030;-79
2021/06/01 01:45:17;;;;;;;4.63;3.53;;;12.20;58.10;;;;;;4991006;28;20046;-79
2021/06/01 01:50:11;;;;;;;4.40;3.22;;;12.00;59.90;;;;;;4980112;28;20565;-78
2021/06/01 01:52:38;;;;;;;6.78;3.90;;;11.90;60.30;;;;;;4958245;28;20038;-79
2021/06/01 01:55:06;;;;;;;8.70;3.67;;;11.90;59.80;;;;;;4973121;28;20525;-79
2021/06/01 01:57:31;;;;;;;8.50;3.75;;;11.90;60.50;;;;;;4996119;28;20041;-79
2021/06/01 01:59:57;;;;;;;5.32;3.30;;;11.80;60.30;;;;;;5000402;28;20034;-79
2021/06/01 02:02:22;;;;;;;7.82;4.35;;;11.70;61.50;;;;;;4997507;28;20043;-79
2021/06/01 02:04:48;;;;;;;6.72;3.67;;;11.70;61.00;;;;;;4993940;28;20054;-79
2021/06/01 02:07:13;;;;;;;8.85;3.67;;;11.70;60.00;;;;;;4966372;28;20060;-79
2021/06/01 02:09:39;;;;;;;6.75;3.55;;;11.70;59.70;;;;;;4990912;28;20482;-79
2021/06/01 02:12:05;;;;;;;18.35;4.10;;;11.30;61.80;;;;;;4994055;28;20038;-78
2021/06/01 02:14:30;;;;;;;5.93;3.70;;;11.00;63.20;;;;;;4997764;28;20540;-78
2021/06/01 02:16:58;;;;;;;6.55;3.85;;;11.10;63.70;;;;;;4978825;28;20039;-79
2021/06/01 02:19:24;;;;;;;6.03;4.10;;;10.90;64.50;;;;;;4979722;28;20034;-78
2021/06/01 02:24:54;;;;;;;5.40;3.80;;;11.20;62.70;;;;;;4995243;28;20038;-78
2021/06/01 02:27:38;;;;;;;8.38;4.00;;;11.20;62.80;;;;;;4993817;28;20035;-77
2021/06/01 02:30:06;;;;;;;8.30;3.83;;;10.80;64.60;;;;;;4983052;28;20045;-78
2021/06/01 02:32:39;;;;;;;6.35;3.88;;;10.80;65.90;;;;;;4971604;28;20029;-77
2021/06/01 02:35:07;;;;;;;10.10;4.25;;;10.80;64.50;;;;;;4995895;28;20038;-78
2021/06/01 02:37:33;;;;;;;5.90;4.03;;;10.80;65.70;;;;;;4993670;28;20038;-78
2021/06/01 02:39:59;;;;;;;6.68;3.65;;;10.80;65.90;;;;;;4964777;28;20042;-77
2021/06/01 02:42:25;;;;;;;8.35;3.72;;;10.90;65.90;;;;;;4985510;28;20501;-79
2021/06/01 02:44:51;;;;;;;6.72;4.25;;;10.80;64.00;;;;;;4979359;28;20019;-77
2021/06/01 02:47:16;;;;;;;7.70;4.00;;;10.80;65.40;;;;;;4982170;28;20576;-77
2021/06/01 02:49:42;;;;;;;7.68;4.28;;;10.80;64.20;;;;;;4979945;28;20034;-77
2021/06/01 02:52:07;;;;;;;6.55;4.25;;;10.50;64.90;;;;;;4978009;28;20022;-77
2021/06/01 02:54:33;;;;;;;5.35;3.42;;;10.50;65.70;;;;;;4983653;28;20050;-78
2021/06/01 02:56:58;;;;;;;6.72;4.15;;;10.30;67.10;;;;;;4977972;28;20055;-77
2021/06/01 02:59:24;;;;;;;8.98;3.95;;;10.30;67.70;;;;;;4978091;28;20085;-78
2021/06/01 03:01:50;;;;;;;8.02;4.70;;;10.10;68.50;;;;;;4984332;28;20583;-78
2021/06/01 03:04:15;;;;;;;5.22;4.20;;;10.20;68.80;;;;;;4980846;28;20038;-77
2021/06/01 03:06:42;;;;;;;5.97;4.03;;;10.60;64.90;;;;;;4962229;28;20086;-79
2021/06/01 03:09:08;;;;;;;9.55;4.47;;;10.60;67.60;;;;;;4997712;28;20030;-77
2021/06/01 03:11:33;;;;;;;5.72;3.67;;;10.50;66.70;;;;;;4981800;28;20038;-77
2021/06/01 03:13:59;;;;;;;8.30;3.63;;;10.40;67.20;;;;;;4981532;28;20035;-78
2021/06/01 03:16:24;;;;;;;7.93;4.32;;;10.30;67.80;;;;;;4998358;28;20034;-78
2021/06/01 03:18:50;;;;;;;6.95;4.60;;;10.40;65.50;;;;;;4983493;28;20037;-78
2021/06/01 03:21:16;;;;;;;8.43;4.07;;;10.40;65.20;;;;;;4972330;28;20161;-77
2021/06/01 03:23:42;;;;;;;4.78;3.72;;;10.40;65.30;;;;;;4966625;28;20034;-78
2021/06/01 03:26:07;;;;;;;9.85;4.25;;;10.50;64.30;;;;;;4989740;28;20056;-77
2021/06/01 03:28:33;;;;;;;7.38;4.10;;;10.40;64.90;;;;;;4997975;28;20501;-78
2021/06/01 03:30:58;;;;;;;10.82;4.32;;;10.20;65.90;;;;;;4968368;28;20045;-78
2021/06/01 03:33:24;;;;;;;6.88;4.97;;;10.00;67.90;;;;;;4998913;28;20106;-78
2021/06/01 03:35:49;;;;;;;7.25;4.30;;;9.80;69.50;;;;;;4996658;28;20136;-77
2021/06/01 03:38:15;;;;;;;6.38;4.32;;;9.70;71.10;;;;;;4980204;28;20036;-78
2021/06/01 03:40:41;;;;;;;11.68;4.63;;;9.70;71.70;;;;;;4966206;28;20142;-78
2021/06/01 03:43:07;;;;;;;8.27;4.50;;;9.70;70.90;;;;;;4999700;28;20424;-78
2021/06/01 03:45:32;;;;;;;6.55;3.92;;;9.70;72.20;;;;;;4995984;28;20371;-78
2021/06/01 03:47:58;;;;;;;8.95;4.93;;;9.70;73.40;;;;;;4982078;28;20357;-78
2021/06/01 03:50:24;;;;;;;7.28;4.30;;;9.70;72.70;;;;;;4969758;28;20651;-78
2021/06/01 03:52:49;;;;;;;6.35;4.43;;;9.80;71.50;;;;;;4984346;28;20026;-78
2021/06/01 03:55:15;;;;;;;10.38;4.47;;;9.80;71.50;;;;;;5001869;28;20030;-78
2021/06/01 03:57:41;;;;;;;10.05;4.80;;;9.80;70.60;;;;;;4997865;28;20050;-78
2021/06/01 04:00:09;;;;;;;6.97;4.90;;;9.60;74.00;;;;;;4970658;28;20085;-79
2021/06/01 04:02:35;;;;;;;12.02;4.85;;;9.60;76.10;;;;;;4978510;28;20042;-79
2021/06/01 04:05:01;;;;;;;11.07;5.00;;;9.60;77.50;;;;;;4999559;28;20038;-78
2021/06/01 04:07:26;;;;;;;8.10;4.85;;;9.70;78.00;;;;;;4971892;28;20480;-78
2021/06/01 04:09:52;;;;;;;6.82;4.32;;;10.00;76.80;;;;;;4982689;28;20239;-78
2021/06/01 04:12:17;;;;;;;8.38;4.65;;;10.30;76.70;;;;;;4999088;28;20034;-78
2021/06/01 04:14:43;;;;;;;6.80;4.63;;;10.40;77.00;;;;;;4980015;28;20085;-78
2021/06/01 04:17:08;;;;;;;6.60;4.20;;;10.50;77.10;;;;;;4975436;28;20037;-78
2021/06/01 04:19:34;;;;;;;14.48;4.88;;;10.70;78.10;;;;;;4971699;28;20044;-78
2021/06/01 04:22:00;;;;;;;8.18;4.72;;;10.90;78.70;;;;;;4972333;28;20034;-78
2021/06/01 04:24:27;;;;;;;7.13;3.72;;;11.10;78.70;;;;;;4988172;28;20121;-78
2021/06/01 04:26:57;;;;;;;5.45;4.70;;;11.30;79.00;;;;;;4980230;28;20066;-79
2021/06/01 04:29:23;;;;;;;5.38;4.20;;;11.40;78.80;;;;;;4987579;28;20033;-79
2021/06/01 04:31:48;;;;;;;8.18;4.30;;;11.60;78.80;;;;;;4965902;28;20038;-78
2021/06/01 04:34:14;;;;;;;6.13;4.30;;;11.90;78.40;;;;;;4987499;28;20077;-78
2021/06/01 04:36:39;;;;;;;9.18;4.22;;;12.10;79.00;;;;;;4961776;28;20401;-78
2021/06/01 04:39:05;;;;;;;10.60;5.05;;;12.30;78.00;;;;;;4952308;28;20037;-78
2021/06/01 04:41:31;;;;;;;6.88;4.35;;;12.60;77.70;;;;;;4991714;28;20484;-78
2021/06/01 04:43:56;;;;;;;13.35;4.93;;;12.80;77.40;;;;;;4971288;28;20121;-79
2021/06/01 04:46:22;;;;;;;7.68;4.72;;;13.00;77.40;;;;;;4980533;28;20428;-79
2021/06/01 04:48:47;;;;;;;6.53;4.57;;;13.30;77.10;;;;;;4965409;28;20037;-78
2021/06/01 04:51:16;;;;;;;7.00;4.30;;;13.50;77.30;;;;;;4983421;28;20569;-78
2021/06/01 04:53:55;;;;;;;10.55;4.43;;;13.70;76.60;;;;;;4999440;28;20084;-78
2021/06/01 04:56:21;;;;;;;9.25;4.07;;;13.90;75.90;;;;;;4973502;28;20038;-78
2021/06/01 04:58:46;;;;;;;8.20;4.38;;;14.20;75.70;;;;;;4970221;28;20080;-78
2021/06/01 05:01:12;;;;;;;6.90;3.83;;;14.40;74.40;;;;;;4983791;28;20034;-78
2021/06/01 05:03:38;;;;;;;5.90;4.18;;;14.60;74.50;;;;;;4964179;28;20030;-78
2021/06/01 05:06:03;;;;;;;8.60;4.22;;;14.90;74.60;;;;;;4982246;28;20026;-78
2021/06/01 05:08:29;;;;;;;6.65;4.20;;;15.20;74.70;;;;;;4981013;28;20026;-79
2021/06/01 05:10:54;;;;;;;7.80;4.35;;;15.40;74.40;;;;;;4995484;28;20057;-79
2021/06/01 05:13:26;;;;;;;8.02;4.35;;;15.70;73.70;;;;;;4985849;28;20051;-79
2021/06/01 05:15:52;;;;;;;5.22;4.03;;;15.90;73.40;;;;;;4978711;28;20552;-79
2021/06/01 05:18:18;;;;;;;8.20;3.33;;;16.10;72.70;;;;;;4971920;28;20037;-78
2021/06/01 05:20:45;;;;;;;6.40;4.13;;;16.40;72.70;;;;;;4981748;28;20324;-79
2021/06/01 05:23:11;;;;;;;8.00;4.78;;;16.70;71.60;;;;;;4975944;28;20038;-79
2021/06/01 05:25:36;;;;;;;6.22;3.80;;;16.90;70.40;;;;;;4995452;28;20065;-78
2021/06/01 05:28:02;;;;;;;8.05;3.70;;;17.10;70.30;;;;;;4968875;28;20033;-78
2021/06/01 05:30:34;;;;;;;7.45;4.05;;;17.30;69.20;;;;;;4962240;28;20051;-77
2021/06/01 05:35:38;;;;;;;8.85;3.58;;;17.70;67.80;;;;;;4995075;28;20061;-78
2021/06/01 05:38:04;;;;;;;7.57;3.95;;;18.00;67.70;;;;;;4968806;28;20265;-79
2021/06/01 05:40:30;;;;;;;5.05;3.80;;;18.20;67.20;;;;;;4977735;28;20037;-78
2021/06/01 05:42:55;;;;;;;7.55;3.88;;;18.40;66.60;;;;;;4996326;28;20034;-78
2021/06/01 05:45:23;;;;;;;4.40;3.55;;;18.70;66.20;;;;;;4978252;28;20030;-79
2021/06/01 05:47:49;;;;;;;6.35;3.83;;;18.90;65.10;;;;;;4979148;28;20402;-79
2021/06/01 05:50:14;;;;;;;4.38;3.17;;;19.10;64.60;;;;;;4968666;28;20149;-79
2021/06/01 05:52:40;;;;;;;5.97;3.38;;;19.30;64.10;;;;;;4994119;28;20392;-80
2021/06/01 05:55:06;;;;;;;3.40;3.10;;;19.50;64.00;;;;;;4982850;28;20117;-79
2021/06/01 05:57:31;;;;;;;6.28;3.70;;;19.80;63.10;;;;;;4965141;28;20037;-79
2021/06/01 05:59:57;;;;;;;4.05;3.00;;;20.10;62.80;;;;;;4985114;28;20125;-79
2021/06/01 06:02:23;;;;;;;6.43;3.40;;;20.30;62.00;;;;;;4986217;28;20026;-79
2021/06/01 06:04:49;;;;;;;5.80;3.20;;;20.50;61.80;;;;;;4962336;28;20514;-80
2021/06/01 06:07:17;;;;;;;4.40;3.00;;;20.70;60.90;;;;;;4997677;28;20049;-79
2021/06/01 06:09:43;;;;;;;4.97;2.97;;;20.90;59.40;;;;;;4964938;28;20039;-80
2021/06/01 06:12:09;;;;;;;13.27;3.72;;;21.10;59.50;;;;;;5004935;28;20500;-79
2021/06/01 06:14:34;;;;;;;4.53;3.47;;;21.20;59.30;;;;;;4999281;28;20074;-79
2021/06/01 06:17:05;;;;;;;6.07;3.15;;;21.40;59.10;;;;;;4995717;28;20032;-79
2021/06/01 06:19:31;;;;;;;6.57;2.67;;;21.70;58.30;;;;;;4971290;28;20054;-79
2021/06/01 06:21:56;;;;;;;6.93;3.17;;;21.90;57.40;;;;;;4960673;28;20438;-80
2021/06/01 06:24:22;;;;;;;6.28;3.78;;;22.00;57.00;;;;;;4963022;28;20521;-80
2021/06/01 06:26:48;;;;;;;5.32;3.10;;;22.30;57.10;;;;;;4975420;28;20466;-81
2021/06/01 06:29:13;;;;;;;5.82;2.53;;;22.40;56.40;;;;;;4967732;28;20040;-80
2021/06/01 06:31:39;;;;;;;3.92;3.17;;;22.60;56.20;;;;;;4967216;28;20037;-80
2021/06/01 06:34:04;;;;;;;5.25;3.03;;;22.80;55.80;;;;;;4968292;28;20382;-80
2021/06/01 06:36:31;;;;;;;4.90;2.90;;;23.10;55.50;;;;;;4965652;28;20042;-80
2021/06/01 06:38:57;;;;;;;3.72;2.90;;;23.30;55.20;;;;;;4979643;28;20038;-80
2021/06/01 06:41:22;;;;;;;4.75;3.00;;;23.40;54.60;;;;;;4968724;28;20022;-79
2021/06/01 06:43:53;;;;;;;4.07;3.15;;;23.70;54.30;;;;;;4966204;28;20470;-80
2021/06/01 06:46:27;;;;;;;5.97;3.05;;;23.90;54.20;;;;;;4974744;28;20025;-81
2021/06/01 06:48:52;;;;;;;5.63;3.55;;;24.00;53.60;;;;;;4969365;28;20057;-81
2021/06/01 06:51:18;;;;;;;4.88;2.95;;;24.30;53.90;;;;;;4984164;28;20058;-81
2021/06/01 06:53:53;;;;;;;9.63;3.03;;;24.50;53.40;;;;;;4995618;28;20030;-81
2021/06/01 06:56:23;;;;;;;8.35;3.10;;;24.60;53.40;;;;;;4969206;28;20117;-83
2021/06/01 06:58:48;;;;;;;4.60;3.08;;;24.80;52.80;;;;;;4985357;28;20116;-83
2021/06/01 07:01:14;;;;;;;5.07;3.00;;;25.20;52.30;;;;;;4972627;28;20109;-82
2021/06/01 07:03:45;;;;;;;4.47;3.08;;;25.30;52.40;;;;;;4966286;28;20030;-83
2021/06/01 07:06:12;;;;;;;3.83;2.63;;;25.50;51.80;;;;;;4970390;28;20018;-82
2021/06/01 07:08:38;;;;;;;3.78;2.80;;;25.60;52.00;;;;;;4986023;28;20515;-82
2021/06/01 07:11:03;;;;;;;4.90;2.50;;;25.70;51.40;;;;;;4985999;28;20310;-82
2021/06/01 07:13:44;;;;;;;4.28;2.88;;;26.00;51.20;;;;;;4967938;28;20053;-82
2021/06/01 07:16:09;;;;;;;3.30;2.63;;;26.20;50.20;;;;;;4998407;28;20037;-82
2021/06/01 07:18:38;;;;;;;5.32;2.80;;;26.30;50.10;;;;;;4985046;28;20034;-82
2021/06/01 07:21:05;;;;;;;4.97;2.75;;;26.60;49.60;;;;;;4985747;28;20398;-82
2021/06/01 07:23:31;;;;;;;5.32;2.78;;;26.80;49.60;;;;;;4983967;28;20026;-82
2021/06/01 07:25:56;;;;;;;5.05;2.90;;;26.90;48.70;;;;;;4979570;28;20478;-83
2021/06/01 07:28:22;;;;;;;5.57;2.60;;;27.10;47.90;;;;;;4985389;28;20029;-83
2021/06/01 07:30:48;;;;;;;4.30;2.60;;;27.30;48.30;;;;;;4982876;28;20054;-83
2021/06/01 07:33:13;;;;;;;3.58;3.03;;;27.40;48.20;;;;;;4972246;28;20142;-83
2021/06/01 07:35:39;;;;;;;3.88;2.10;;;27.60;48.90;;;;;;4981461;28;20055;-83
2021/06/01 07:38:05;;;;;;;4.22;2.42;;;27.70;47.80;;;;;;4967741;28;20096;-83
2021/06/01 07:40:31;;;;;;;3.92;2.78;;;27.90;47.00;;;;;;4968391;28;20132;-83
2021/06/01 07:42:56;;;;;;;4.18;2.25;;;28.10;46.40;;;;;;4981044;28;20069;-83
2021/06/01 07:45:25;;;;;;;4.05;2.70;;;28.20;46.10;;;;;;4972738;28;20067;-83
2021/06/01 07:47:50;;;;;;;3.38;2.53;;;28.40;45.60;;;;;;4981720;28;20053;-83
2021/06/01 07:50:16;;;;;;;2.13;1.98;;;28.50;45.30;;;;;;4971614;28;20034;-82
2021/06/01 07:52:41;;;;;;;2.20;2.00;;;28.50;45.60;;;;;;4984426;28;20489;-82
2021/06/01 07:55:07;;;;;;;4.90;2.53;;;28.40;46.20;;;;;;4967471;28;20126;-82
2021/06/01 07:57:33;;;;;;;4.72;2.17;;;28.50;46.60;;;;;;4995394;28;20030;-82
2021/06/01 07:59:58;;;;;;;2.63;2.40;;;28.90;45.00;;;;;;4982821;28;20034;-82
2021/06/01 08:02:25;;;;;;;4.55;2.13;;;29.20;44.60;;;;;;4980782;28;20073;-82
2021/06/01 08:04:52;;;;;;;2.70;2.05;;;29.40;43.50;;;;;;4982391;28;20072;-82
2021/06/01 08:07:20;;;;;;;4.28;2.55;;;29.40;43.30;;;;;;4971725;28;20048;-81
2021/06/01 08:09:45;;;;;;;8.50;2.47;;;29.20;44.50;;;;;;4980586;28;21237;-81
2021/06/01 08:12:11;;;;;;;3.00;1.80;;;29.10;45.10;;;;;;4982812;28;20116;-81
2021/06/01 08:14:36;;;;;;;2.88;2.20;;;29.70;43.10;;;;;;4977256;28;20461;-81
2021/06/01 08:17:03;;;;;;;5.45;2.28;;;29.90;42.70;;;;;;4967987;28;20022;-82
2021/06/01 08:19:32;;;;;;;2.83;1.90;;;30.20;41.00;;;;;;4967561;28;20034;-82
2021/06/01 08:22:11;;;;;;;4.25;1.92;;;30.40;40.60;;;;;;4981026;28;20030;-81
2021/06/01 08:24:37;;;;;;;4.53;1.92;;;30.60;40.10;;;;;;4973029;28;20494;-82
2021/06/01 08:27:03;;;;;;;2.38;2.17;;;30.90;38.80;;;;;;4968916;28;20365;-82
2021/06/01 08:29:29;;;;;;;2.65;2.45;;;31.00;38.00;;;;;;4979536;28;20413;-82
2021/06/01 08:31:54;;;;;;;3.13;2.10;;;30.80;38.60;;;;;;4968057;28;20042;-83
2021/06/01 08:34:20;;;;;;;5.35;2.55;;;30.80;38.40;;;;;;4980279;28;20030;-82
2021/06/01 08:36:46;;;;;;;5.20;2.28;;;30.90;38.70;;;;;;4992493;28;20046;-83
2021/06/01 08:39:11;;;;;;;2.20;2.00;;;31.00;37.70;;;;;;4979312;28;20033;-83
2021/06/01 08:41:37;;;;;;;2.25;2.03;;;31.20;38.00;;;;;;4992186;28;20022;-82
2021/06/01 08:44:04;;;;;;;1.75;1.65;;;31.30;36.70;;;;;;4967475;28;20401;-82
2021/06/01 08:46:30;;;;;;;1.83;1.73;;;31.30;38.50;;;;;;4995298;28;20737;-82
2021/06/01 08:48:56;;;;;;;2.95;1.70;;;31.60;36.40;;;;;;4997347;28;20153;-81
2021/06/01 08:51:22;;;;;;;1.95;1.77;;;31.30;36.60;;;;;;4970607;28;20201;-81
2021/06/01 08:53:48;;;;;;;6.35;2.97;;;31.60;38.10;;;;;;4966987;28;20212;-80
2021/06/01 08:56:14;;;;;;;1.98;1.88;;;31.70;37.60;;;;;;4982062;28;20034;-82
2021/06/01 08:58:41;;;;;;;2.97;1.58;;;32.00;35.60;;;;;;4966617;28;20030;-81
2021/06/01 09:01:09;;;;;;;2.67;1.75;;;32.10;35.20;;;;;;4982404;28;20037;-79
2021/06/01 09:03:36;;;;;;;2.65;1.88;;;32.20;34.40;;;;;;4966661;28;20430;-81
2021/06/01 09:06:24;;;;;;;1.80;1.70;;;32.20;34.40;;;;;;4978497;28;20058;-82
2021/06/01 09:22:09;;;;;;;3.40;2.00;;;32.60;33.60;;;;;;4967864;28;20022;-81
2021/06/01 09:24:35;;;;;;;5.03;1.85;;;32.80;31.40;;;;;;4978269;28;20096;-81
2021/06/01 09:27:14;;;;;;;2.95;1.98;;;32.80;33.60;;;;;;4977757;28;20153;-81
2021/06/01 09:29:39;;;;;;;4.10;2.00;;;32.80;33.90;;;;;;4995308;28;20127;-81
2021/06/01 09:32:17;;;;;;;2.70;1.65;;;32.90;33.50;;;;;;4945100;28;20466;-81
2021/06/01 09:34:47;;;;;;;3.53;2.22;;;32.80;34.20;;;;;;4977136;28;20060;-81
2021/06/01 09:37:17;;;;;;;2.42;1.92;;;33.20;32.50;;;;;;4992540;28;20045;-81
2021/06/01 09:39:43;;;;;;;3.40;2.08;;;33.30;33.20;;;;;;4981101;28;20045;-81
2021/06/01 09:42:28;;;;;;;2.97;1.77;;;33.40;32.60;;;;;;4977608;28;20034;-81
2021/06/01 09:45:13;;;;;;;2.85;1.98;;;33.60;31.80;;;;;;4969527;28;20039;-80
2021/06/01 09:47:51;;;;;;;2.40;2.20;;;33.60;30.40;;;;;;4991951;28;20386;-80
2021/06/01 09:52:49;;;;;;;2.92;1.50;;;33.60;31.90;;;;;;4993754;28;20034;-80
2021/06/01 09:55:24;;;;;;;7.20;1.88;;;33.70;33.00;;;;;;4969573;28;20041;-80
2021/06/01 09:57:50;;;;;;;5.43;2.00;;;33.70;32.80;;;;;;4982177;28;20044;-80
2021/06/01 10:00:20;;;;;;;3.95;2.30;;;33.90;32.00;;;;;;4960856;28;20085;-81
2021/06/01 10:02:56;;;;;;;2.95;2.58;;;34.00;29.60;;;;;;4975365;28;20133;-81
2021/06/01 10:05:23;;;;;;;2.85;2.33;;;33.90;28.90;;;;;;4969246;28;21098;-81
2021/06/01 10:07:49;;;;;;;3.30;1.55;;;34.00;29.60;;;;;;4992733;28;20536;-78
2021/06/01 10:10:21;;;;;;;4.65;2.72;;;34.00;30.10;;;;;;4969009;28;20044;-80
2021/06/01 10:12:48;;;;;;;4.43;2.20;;;33.90;30.10;;;;;;4979590;28;20564;-79
2021/06/01 10:15:15;;;;;;;3.80;1.90;;;34.10;28.80;;;;;;4961827;28;20506;-81
2021/06/01 10:17:41;;;;;;;5.05;1.80;;;34.10;30.10;;;;;;4963262;28;20052;-81
2021/06/01 10:20:07;;;;;;;3.13;2.25;;;34.10;29.80;;;;;;4992283;28;20042;-80
2021/06/01 10:22:32;;;;;;;3.83;1.92;;;34.30;30.00;;;;;;4990902;28;20034;-81
2021/06/01 10:24:58;;;;;;;2.20;1.90;;;34.20;30.60;;;;;;4997767;28;20049;-80
2021/06/01 10:27:24;;;;;;;2.72;2.00;;;34.30;30.30;;;;;;4982314;28;20034;-81
2021/06/01 10:29:49;;;;;;;3.80;1.90;;;34.80;31.10;;;;;;4978514;28;20401;-80
2021/06/01 10:32:15;;;;;;;4.35;2.17;;;34.60;30.20;;;;;;4976942;28;20034;-80
2021/06/01 10:34:41;;;;;;;2.65;1.85;;;34.90;30.60;;;;;;4963941;28;20272;-81
2021/06/01 10:42:47;;;;;;;1.92;1.83;;;34.90;29.50;;;;;;4995515;28;20084;-81
2021/06/01 10:51:03;;;;;;;1.92;1.70;;;35.40;30.30;;;;;;4977602;28;20088;-80
2021/06/01 10:53:41;;;;;;;2.72;1.77;;;35.40;29.30;;;;;;4977774;28;20034;-81
2021/06/01 10:56:08;;;;;;;2.80;2.47;;;35.20;27.60;;;;;;4978191;28;20092;-79
2021/06/01 10:58:38;;;;;;;3.35;1.80;;;35.20;28.40;;;;;;4977103;28;20022;-81
2021/06/01 11:04:22;;;;;;;3.15;2.20;;;35.30;28.40;;;;;;4979500;28;20048;-79
2021/06/01 11:07:10;;;;;;;3.97;2.00;;;35.20;27.60;;;;;;4981511;28;20038;-80
2021/06/01 11:09:40;;;;;;;2.63;1.83;;;35.30;27.80;;;;;;4999877;28;20082;-81
2021/06/01 11:12:19;;;;;;;5.43;2.20;;;35.30;27.60;;;;;;4990118;28;20310;-81
2021/06/01 11:14:49;;;;;;;1.70;1.60;;;35.30;28.00;;;;;;4989612;28;20765;-81
2021/06/01 11:17:38;;;;;;;1.88;1.77;;;35.30;27.60;;;;;;4977189;28;20414;-81
2021/06/01 11:20:53;;;;;;;1.63;1.52;;;35.40;28.50;;;;;;4975177;28;20057;-81
2021/06/01 11:23:10;;;;;;;1.55;1.40;;;35.40;27.80;;;;;;4993574;28;20180;-81
2021/06/01 11:33:51;;;;;;;2.70;1.67;;;35.80;27.10;;;;;;5001097;28;20099;-81
2021/06/01 11:36:18;;;;;;;4.20;1.65;;;36.30;27.60;;;;;;4991022;28;20489;-81
2021/06/01 11:44:19;;;;;;;2.38;1.67;;;35.90;26.30;;;;;;4981010;28;20072;-81
2021/06/01 11:46:53;;;;;;;2.17;1.98;;;36.00;26.50;;;;;;4963019;28;20034;-81
2021/06/01 11:52:03;;;;;;;2.80;2.30;;;35.90;26.80;;;;;;4997387;28;20084;-78
2021/06/01 11:54:29;;;;;;;3.58;1.80;;;36.00;27.40;;;;;;4994628;28;20034;-80
2021/06/01 11:57:20;;;;;;;4.32;1.90;;;36.00;26.20;;;;;;4979660;28;20029;-80
2021/06/01 12:02:49;;;;;;;2.67;1.88;;;36.40;26.70;;;;;;4996370;28;20037;-80
2021/06/01 12:11:12;;;;;;;1.83;1.73;;;36.20;26.70;;;;;;4980784;28;20113;-80
2021/06/01 12:11:22;;;;;;;3.85;2.15;;;36.90;27.10;;;;;;4980613;28;20044;-79
2021/06/01 12:14:00;;;;;;;1.80;1.67;;;36.90;27.70;;;;;;4984996;28;20552;-81
2021/06/01 12:19:11;;;;;;;1.33;1.23;;;36.70;27.60;;;;;;4994280;28;20033;-80
2021/06/01 12:21:43;;;;;;;1.70;1.58;;;37.40;27.70;;;;;;4982467;28;20035;-80
2021/06/01 12:24:17;;;;;;;1.67;1.58;;;37.90;26.70;;;;;;4970089;28;20041;-79
2021/06/01 12:32:23;;;;;;;1.60;1.50;;;37.20;26.20;;;;;;4993614;28;20121;-80
2021/06/01 12:43:45;;;;;;;2.70;1.73;;;37.00;26.00;;;;;;4997967;28;20029;-79
2021/06/01 13:40:18;;;;;;;4.25;1.85;;;38.10;26.60;;;;;;4980624;28;20449;-79
2021/06/01 13:56:00;;;;;;;6.50;2.10;;;38.10;26.50;;;;;;4988607;28;20395;-80
2021/06/01 13:58:39;;;;;;;2.83;2.30;;;38.20;26.50;;;;;;4978278;28;20479;-80
2021/06/01 14:20:14;;;;;;;2.88;1.73;;;38.30;26.50;;;;;;4990594;28;20049;-79
2021/06/01 14:31:01;;;;;;;2.28;2.08;;;38.20;25.60;;;;;;4996044;28;20100;-79
2021/06/01 14:39:19;;;;;;;4.60;1.90;;;38.30;26.20;;;;;;4991289;28;20034;-80
2021/06/01 15:04:16;;;;;;;6.43;1.88;;;38.40;25.50;;;;;;4997960;28;20053;-79
2021/06/01 15:09:45;;;;;;;4.05;1.83;;;38.30;24.90;;;;;;4992766;28;20044;-79
2021/06/01 15:48:06;;;;;;;2.65;1.55;;;37.20;25.20;;;;;;4994140;28;20510;-78
2021/06/01 15:50:40;;;;;;;3.47;1.40;;;37.10;24.60;;;;;;4976187;28;20026;-78
2021/06/01 16:11:13;;;;;;;4.10;1.77;;;37.00;24.40;;;;;;4997228;28;20045;-78
2021/06/01 16:12:36;;;;;;;1.80;1.70;;;36.70;24.00;;;;;;4997829;28;20096;-79
2021/06/01 16:23:24;;;;;;;5.20;1.70;;;36.30;25.20;;;;;;4985889;28;20037;-78
2021/06/01 16:31:38;;;;;;;5.73;1.80;;;36.50;25.30;;;;;;4995130;28;20041;-80
2021/06/01 16:42:29;;;;;;;5.43;1.83;;;36.70;25.00;;;;;;4981754;28;20042;-79
2021/06/01 17:06:42;;;;;;;2.63;1.65;;;36.60;25.30;;;;;;5009452;28;20034;-78
2021/06/01 17:11:41;;;;;;;4.45;2.10;;;36.50;24.70;;;;;;5010363;28;20509;-78
2021/06/01 17:14:07;;;;;;;4.30;1.90;;;36.40;24.80;;;;;;4979682;28;20026;-79
2021/06/01 17:16:41;;;;;;;1.70;1.52;;;36.30;25.60;;;;;;4981234;28;20026;-79
2021/06/01 17:20:06;;;;;;;4.85;1.50;;;36.10;24.30;;;;;;4980901;28;20030;-79
2021/06/01 17:35:13;;;;;;;3.45;2.42;;;35.30;25.20;;;;;;4984972;28;20026;-79
2021/06/01 17:37:39;;;;;;;1.98;1.60;;;35.10;25.80;;;;;;4982773;28;20168;-79
2021/06/01 17:40:06;;;;;;;1.90;1.42;;;35.10;25.60;;;;;;4986490;28;20534;-81
2021/06/01 17:42:32;;;;;;;1.92;1.70;;;35.00;25.70;;;;;;4973367;28;20033;-80
2021/06/01 17:44:59;;;;;;;2.20;1.50;;;34.70;25.70;;;;;;4966906;28;20053;-81
2021/06/01 17:47:26;;;;;;;3.97;1.60;;;34.70;26.10;;;;;;4972678;28;20075;-81
2021/06/01 17:49:52;;;;;;;4.10;1.40;;;34.60;26.30;;;;;;4985197;28;20083;-79
2021/06/01 17:52:29;;;;;;;5.68;1.60;;;34.60;26.50;;;;;;4970959;28;20034;-81
2021/06/01 17:54:55;;;;;;;5.03;1.73;;;34.50;26.50;;;;;;4982305;28;20482;-81
2021/06/01 17:57:22;;;;;;;3.28;1.60;;;34.50;26.50;;;;;;4980937;28;20032;-81
2021/06/01 17:59:47;;;;;;;6.35;1.63;;;34.50;26.60;;;;;;4970277;28;20023;-81
2021/06/01 18:02:21;;;;;;;2.70;1.88;;;34.40;26.20;;;;;;4967053;28;20279;-79
2021/06/01 18:04:49;;;;;;;5.60;1.73;;;34.30;26.50;;;;;;4969291;28;20026;-79
2021/06/01 18:42:42;;;;;;;2.45;1.40;;;32.10;27.50;;;;;;4999295;28;20177;-78
2021/06/01 19:50:16;;;;;;;3.20;1.90;;;25.20;32.80;;;;;;5002086;28;20084;-85